sensor_id;sensor_type;location;lat;lon;timestamp;P1;durP1;ratioP1;P2;durP2;ratioP2
35839;SDS011;35514;50.504;30.500;2023-04-25T00:10:11;16.23;;;6.45;;
35839;SDS011;35514;50.504;30.500;2023-04-25T00:12:41;9.80;;;4.80;;
35839;SDS011;35514;50.504;30.500;2023-04-25T00:15:09;12.98;;;4.72;;
35839;SDS011;35514;50.504;30.500;2023-04-25T00:17:37;7.10;;;4.20;;
35839;SDS011;35514;50.504;30.500;2023-04-25T00:20:05;5.53;;;3.70;;
35839;SDS011;35514;50.504;30.500;2023-04-25T00:22:35;8.65;;;4.20;;
35839;SDS011;35514;50.504;30.500;2023-04-25T00:25:04;17.77;;;5.60;;
35839;SDS011;35514;50.504;30.500;2023-04-25T00:27:33;10.32;;;4.63;;
35839;SDS011;35514;50.504;30.500;2023-04-25T00:30:01;7.45;;;4.45;;
35839;SDS011;35514;50.504;30.500;2023-04-25T00:32:31;14.13;;;7.07;;
35839;SDS011;35514;50.504;30.500;2023-04-25T00:34:58;10.43;;;5.30;;
35839;SDS011;35514;50.504;30.500;2023-04-25T00:37:28;11.07;;;4.85;;
35839;SDS011;35514;50.504;30.500;2023-04-25T00:39:57;9.73;;;5.18;;
35839;SDS011;35514;50.504;30.500;2023-04-25T00:42:28;11.15;;;5.28;;
35839;SDS011;35514;50.504;30.500;2023-04-25T00:44:57;9.43;;;4.97;;
35839;SDS011;35514;50.504;30.500;2023-04-25T00:47:25;9.10;;;5.03;;
35839;SDS011;35514;50.504;30.500;2023-04-25T00:49:53;18.30;;;6.97;;
35839;SDS011;35514;50.504;30.500;2023-04-25T00:52:21;9.55;;;4.88;;
35839;SDS011;35514;50.504;30.500;2023-04-25T00:54:48;9.82;;;5.55;;
35839;SDS011;35514;50.504;30.500;2023-04-25T00:57:16;13.13;;;5.43;;
35839;SDS011;35514;50.504;30.500;2023-04-25T00:59:45;8.95;;;4.82;;
35839;SDS011;35514;50.504;30.500;2023-04-25T01:02:14;9.77;;;4.53;;
35839;SDS011;35514;50.504;30.500;2023-04-25T01:04:42;11.52;;;4.85;;
35839;SDS011;35514;50.504;30.500;2023-04-25T01:07:10;11.95;;;5.10;;
35839;SDS011;35514;50.504;30.500;2023-04-25T01:09:41;9.07;;;5.10;;
35839;SDS011;35514;50.504;30.500;2023-04-25T01:12:09;12.30;;;5.10;;
35839;SDS011;35514;50.504;30.500;2023-04-25T01:14:36;9.45;;;5.13;;
35839;SDS011;35514;50.504;30.500;2023-04-25T01:17:04;10.30;;;5.35;;
35839;SDS011;35514;50.504;30.500;2023-04-25T01:19:35;10.35;;;5.47;;
35839;SDS011;35514;50.504;30.500;2023-04-25T01:22:04;12.50;;;5.65;;
35839;SDS011;35514;50.504;30.500;2023-04-25T01:24:32;11.75;;;5.43;;
35839;SDS011;35514;50.504;30.500;2023-04-25T01:27:00;10.55;;;5.32;;
35839;SDS011;35514;50.504;30.500;2023-04-25T01:31:56;14.63;;;6.03;;
35839;SDS011;35514;50.504;30.500;2023-04-25T01:34:24;14.35;;;6.22;;
35839;SDS011;35514;50.504;30.500;2023-04-25T01:36:52;12.98;;;5.75;;
35839;SDS011;35514;50.504;30.500;2023-04-25T01:39:21;9.98;;;5.60;;
35839;SDS011;35514;50.504;30.500;2023-04-25T01:41:49;14.38;;;5.30;;
35839;SDS011;35514;50.504;30.500;2023-04-25T01:44:17;14.70;;;5.75;;
35839;SDS011;35514;50.504;30.500;2023-04-25T01:46:44;10.30;;;5.00;;
35839;SDS011;35514;50.504;30.500;2023-04-25T01:49:12;12.90;;;5.82;;
35839;SDS011;35514;50.504;30.500;2023-04-25T01:51:40;25.70;;;8.13;;
35839;SDS011;35514;50.504;30.500;2023-04-25T01:54:08;16.67;;;6.25;;
35839;SDS011;35514;50.504;30.500;2023-04-25T01:56:37;11.55;;;5.78;;
35839;SDS011;35514;50.504;30.500;2023-04-25T01:59:05;10.95;;;6.43;;
35839;SDS011;35514;50.504;30.500;2023-04-25T02:01:33;13.88;;;6.63;;
35839;SDS011;35514;50.504;30.500;2023-04-25T02:04:00;17.25;;;7.50;;
35839;SDS011;35514;50.504;30.500;2023-04-25T02:06:28;14.60;;;7.53;;
35839;SDS011;35514;50.504;30.500;2023-04-25T02:08:57;17.15;;;7.95;;
35839;SDS011;35514;50.504;30.500;2023-04-25T02:11:24;24.45;;;10.13;;
35839;SDS011;35514;50.504;30.500;2023-04-25T02:13:53;20.10;;;9.18;;
35839;SDS011;35514;50.504;30.500;2023-04-25T02:16:21;19.60;;;9.82;;
35839;SDS011;35514;50.504;30.500;2023-04-25T02:18:49;20.63;;;10.23;;
35839;SDS011;35514;50.504;30.500;2023-04-25T02:21:19;20.63;;;10.15;;
35839;SDS011;35514;50.504;30.500;2023-04-25T02:23:46;22.67;;;9.50;;
35839;SDS011;35514;50.504;30.500;2023-04-25T02:26:16;21.85;;;9.50;;
35839;SDS011;35514;50.504;30.500;2023-04-25T02:28:44;23.83;;;10.40;;
35839;SDS011;35514;50.504;30.500;2023-04-25T02:31:13;26.90;;;10.35;;
35839;SDS011;35514;50.504;30.500;2023-04-25T02:33:42;18.27;;;9.63;;
35839;SDS011;35514;50.504;30.500;2023-04-25T02:36:10;21.52;;;8.77;;
35839;SDS011;35514;50.504;30.500;2023-04-25T02:38:38;19.05;;;9.45;;
35839;SDS011;35514;50.504;30.500;2023-04-25T02:41:08;17.95;;;8.63;;
35839;SDS011;35514;50.504;30.500;2023-04-25T02:43:36;20.08;;;9.57;;
35839;SDS011;35514;50.504;30.500;2023-04-25T02:46:04;16.30;;;8.45;;
35839;SDS011;35514;50.504;30.500;2023-04-25T02:48:35;16.98;;;9.00;;
35839;SDS011;35514;50.504;30.500;2023-04-25T02:51:04;18.83;;;10.15;;
35839;SDS011;35514;50.504;30.500;2023-04-25T02:53:33;21.95;;;8.63;;
35839;SDS011;35514;50.504;30.500;2023-04-25T02:56:00;19.83;;;9.57;;
35839;SDS011;35514;50.504;30.500;2023-04-25T02:58:28;20.65;;;9.48;;
35839;SDS011;35514;50.504;30.500;2023-04-25T03:00:56;25.30;;;11.13;;
35839;SDS011;35514;50.504;30.500;2023-04-25T03:03:23;23.65;;;10.90;;
35839;SDS011;35514;50.504;30.500;2023-04-25T03:05:52;21.83;;;9.48;;
35839;SDS011;35514;50.504;30.500;2023-04-25T03:08:20;25.60;;;9.30;;
35839;SDS011;35514;50.504;30.500;2023-04-25T03:10:48;18.52;;;9.32;;
35839;SDS011;35514;50.504;30.500;2023-04-25T03:13:16;17.95;;;8.82;;
35839;SDS011;35514;50.504;30.500;2023-04-25T03:15:44;19.75;;;9.38;;
35839;SDS011;35514;50.504;30.500;2023-04-25T03:18:12;17.65;;;10.02;;
35839;SDS011;35514;50.504;30.500;2023-04-25T03:20:39;27.33;;;11.13;;
35839;SDS011;35514;50.504;30.500;2023-04-25T03:23:09;22.10;;;10.15;;
35839;SDS011;35514;50.504;30.500;2023-04-25T03:25:36;20.05;;;9.68;;
35839;SDS011;35514;50.504;30.500;2023-04-25T03:28:04;18.23;;;8.40;;
35839;SDS011;35514;50.504;30.500;2023-04-25T03:30:32;21.50;;;9.38;;
35839;SDS011;35514;50.504;30.500;2023-04-25T03:33:03;22.15;;;8.27;;
35839;SDS011;35514;50.504;30.500;2023-04-25T03:35:31;21.58;;;8.80;;
35839;SDS011;35514;50.504;30.500;2023-04-25T03:37:59;22.23;;;8.48;;
35839;SDS011;35514;50.504;30.500;2023-04-25T03:40:28;20.00;;;8.52;;
35839;SDS011;35514;50.504;30.500;2023-04-25T03:42:56;26.05;;;8.65;;
35839;SDS011;35514;50.504;30.500;2023-04-25T03:45:26;19.00;;;8.38;;
35839;SDS011;35514;50.504;30.500;2023-04-25T03:47:53;16.98;;;9.90;;
35839;SDS011;35514;50.504;30.500;2023-04-25T03:50:21;20.10;;;9.93;;
35839;SDS011;35514;50.504;30.500;2023-04-25T03:52:49;14.65;;;8.07;;
35839;SDS011;35514;50.504;30.500;2023-04-25T03:55:17;26.58;;;8.20;;
35839;SDS011;35514;50.504;30.500;2023-04-25T03:57:46;17.30;;;8.57;;
35839;SDS011;35514;50.504;30.500;2023-04-25T04:00:14;17.23;;;8.27;;
35839;SDS011;35514;50.504;30.500;2023-04-25T04:02:44;17.38;;;7.95;;
35839;SDS011;35514;50.504;30.500;2023-04-25T04:05:12;14.30;;;7.30;;
35839;SDS011;35514;50.504;30.500;2023-04-25T04:07:41;15.45;;;7.90;;
35839;SDS011;35514;50.504;30.500;2023-04-25T04:10:09;15.20;;;7.88;;
35839;SDS011;35514;50.504;30.500;2023-04-25T04:13:02;18.77;;;9.02;;
35839;SDS011;35514;50.504;30.500;2023-04-25T04:15:30;15.55;;;8.60;;
35839;SDS011;35514;50.504;30.500;2023-04-25T04:17:59;21.80;;;7.45;;
35839;SDS011;35514;50.504;30.500;2023-04-25T04:20:29;15.48;;;7.85;;
35839;SDS011;35514;50.504;30.500;2023-04-25T04:23:21;15.93;;;7.82;;
35839;SDS011;35514;50.504;30.500;2023-04-25T04:25:51;19.40;;;8.68;;
35839;SDS011;35514;50.504;30.500;2023-04-25T04:28:25;18.92;;;8.80;;
35839;SDS011;35514;50.504;30.500;2023-04-25T04:30:56;14.20;;;7.88;;
35839;SDS011;35514;50.504;30.500;2023-04-25T04:33:23;15.73;;;6.82;;
35839;SDS011;35514;50.504;30.500;2023-04-25T04:35:52;15.30;;;7.80;;
35839;SDS011;35514;50.504;30.500;2023-04-25T04:38:22;17.45;;;6.35;;
35839;SDS011;35514;50.504;30.500;2023-04-25T04:40:50;15.18;;;7.38;;
35839;SDS011;35514;50.504;30.500;2023-04-25T04:43:18;24.15;;;7.22;;
35839;SDS011;35514;50.504;30.500;2023-04-25T04:45:48;11.50;;;6.35;;
35839;SDS011;35514;50.504;30.500;2023-04-25T04:48:16;12.75;;;6.43;;
35839;SDS011;35514;50.504;30.500;2023-04-25T04:50:44;13.65;;;6.00;;
35839;SDS011;35514;50.504;30.500;2023-04-25T04:53:12;12.43;;;5.75;;
35839;SDS011;35514;50.504;30.500;2023-04-25T04:55:43;17.35;;;5.72;;
35839;SDS011;35514;50.504;30.500;2023-04-25T04:58:10;14.32;;;5.55;;
35839;SDS011;35514;50.504;30.500;2023-04-25T05:00:38;12.15;;;5.40;;
35839;SDS011;35514;50.504;30.500;2023-04-25T05:03:08;10.68;;;5.57;;
35839;SDS011;35514;50.504;30.500;2023-04-25T05:05:36;13.75;;;5.82;;
35839;SDS011;35514;50.504;30.500;2023-04-25T05:08:06;14.18;;;5.80;;
35839;SDS011;35514;50.504;30.500;2023-04-25T05:10:33;14.73;;;5.80;;
35839;SDS011;35514;50.504;30.500;2023-04-25T05:13:01;12.13;;;4.97;;
35839;SDS011;35514;50.504;30.500;2023-04-25T05:15:32;15.23;;;5.53;;
35839;SDS011;35514;50.504;30.500;2023-04-25T05:18:01;13.27;;;5.47;;
35839;SDS011;35514;50.504;30.500;2023-04-25T05:20:41;17.20;;;6.43;;
35839;SDS011;35514;50.504;30.500;2023-04-25T05:23:11;15.02;;;4.50;;
35839;SDS011;35514;50.504;30.500;2023-04-25T05:25:42;13.23;;;5.07;;
35839;SDS011;35514;50.504;30.500;2023-04-25T05:28:12;15.85;;;4.25;;
35839;SDS011;35514;50.504;30.500;2023-04-25T05:30:40;17.77;;;4.88;;
35839;SDS011;35514;50.504;30.500;2023-04-25T05:33:09;12.40;;;4.68;;
35839;SDS011;35514;50.504;30.500;2023-04-25T05:35:38;16.70;;;5.40;;
35839;SDS011;35514;50.504;30.500;2023-04-25T05:38:16;12.60;;;5.05;;
35839;SDS011;35514;50.504;30.500;2023-04-25T05:40:49;7.50;;;4.90;;
35839;SDS011;35514;50.504;30.500;2023-04-25T05:43:23;11.18;;;4.18;;
35839;SDS011;35514;50.504;30.500;2023-04-25T05:46:19;16.05;;;4.85;;
35839;SDS011;35514;50.504;30.500;2023-04-25T05:48:47;13.13;;;4.72;;
35839;SDS011;35514;50.504;30.500;2023-04-25T05:51:16;14.82;;;5.03;;
35839;SDS011;35514;50.504;30.500;2023-04-25T05:53:49;12.68;;;4.22;;
35839;SDS011;35514;50.504;30.500;2023-04-25T05:56:18;9.45;;;5.30;;
35839;SDS011;35514;50.504;30.500;2023-04-25T05:58:46;18.77;;;5.07;;
35839;SDS011;35514;50.504;30.500;2023-04-25T06:01:14;11.43;;;5.28;;
35839;SDS011;35514;50.504;30.500;2023-04-25T06:03:44;13.90;;;5.43;;
35839;SDS011;35514;50.504;30.500;2023-04-25T06:06:12;13.70;;;7.32;;
35839;SDS011;35514;50.504;30.500;2023-04-25T06:08:43;10.02;;;4.75;;
35839;SDS011;35514;50.504;30.500;2023-04-25T06:11:20;11.40;;;4.13;;
35839;SDS011;35514;50.504;30.500;2023-04-25T06:13:48;13.07;;;5.55;;
35839;SDS011;35514;50.504;30.500;2023-04-25T06:16:16;14.02;;;5.47;;
35839;SDS011;35514;50.504;30.500;2023-04-25T06:18:43;10.65;;;4.55;;
35839;SDS011;35514;50.504;30.500;2023-04-25T06:21:13;8.65;;;4.53;;
35839;SDS011;35514;50.504;30.500;2023-04-25T06:23:45;10.73;;;4.57;;
35839;SDS011;35514;50.504;30.500;2023-04-25T06:26:18;16.73;;;4.40;;
35839;SDS011;35514;50.504;30.500;2023-04-25T06:28:48;16.27;;;4.65;;
35839;SDS011;35514;50.504;30.500;2023-04-25T06:31:39;6.80;;;3.72;;
35839;SDS011;35514;50.504;30.500;2023-04-25T06:34:31;6.90;;;3.97;;
35839;SDS011;35514;50.504;30.500;2023-04-25T06:36:59;11.73;;;4.18;;
35839;SDS011;35514;50.504;30.500;2023-04-25T06:39:29;14.48;;;4.22;;
35839;SDS011;35514;50.504;30.500;2023-04-25T06:41:56;10.60;;;3.95;;
35839;SDS011;35514;50.504;30.500;2023-04-25T06:44:24;11.13;;;3.95;;
35839;SDS011;35514;50.504;30.500;2023-04-25T06:46:52;11.10;;;4.15;;
35839;SDS011;35514;50.504;30.500;2023-04-25T06:49:20;12.73;;;4.68;;
35839;SDS011;35514;50.504;30.500;2023-04-25T06:51:48;10.20;;;4.35;;
35839;SDS011;35514;50.504;30.500;2023-04-25T06:54:15;10.90;;;4.22;;
35839;SDS011;35514;50.504;30.500;2023-04-25T06:56:48;7.30;;;3.83;;
35839;SDS011;35514;50.504;30.500;2023-04-25T06:59:16;6.47;;;3.65;;
35839;SDS011;35514;50.504;30.500;2023-04-25T07:01:47;7.00;;;3.67;;
35839;SDS011;35514;50.504;30.500;2023-04-25T07:04:40;15.32;;;3.65;;
35839;SDS011;35514;50.504;30.500;2023-04-25T07:07:32;12.85;;;4.82;;
35839;SDS011;35514;50.504;30.500;2023-04-25T07:10:25;7.32;;;3.78;;
35839;SDS011;35514;50.504;30.500;2023-04-25T07:12:54;8.13;;;4.07;;
35839;SDS011;35514;50.504;30.500;2023-04-25T07:15:28;9.68;;;4.20;;
35839;SDS011;35514;50.504;30.500;2023-04-25T07:17:56;10.00;;;3.55;;
35839;SDS011;35514;50.504;30.500;2023-04-25T07:20:26;11.75;;;3.95;;
35839;SDS011;35514;50.504;30.500;2023-04-25T07:22:54;11.60;;;3.83;;
35839;SDS011;35514;50.504;30.500;2023-04-25T07:25:21;7.57;;;3.38;;
35839;SDS011;35514;50.504;30.500;2023-04-25T07:27:55;8.57;;;3.03;;
35839;SDS011;35514;50.504;30.500;2023-04-25T07:30:28;9.20;;;3.00;;
35839;SDS011;35514;50.504;30.500;2023-04-25T07:32:56;7.63;;;3.42;;
35839;SDS011;35514;50.504;30.500;2023-04-25T07:35:27;9.25;;;3.28;;
35839;SDS011;35514;50.504;30.500;2023-04-25T07:37:55;6.38;;;3.53;;
35839;SDS011;35514;50.504;30.500;2023-04-25T07:40:25;6.80;;;3.10;;
35839;SDS011;35514;50.504;30.500;2023-04-25T07:43:00;11.80;;;3.60;;
35839;SDS011;35514;50.504;30.500;2023-04-25T07:45:30;10.38;;;3.30;;
35839;SDS011;35514;50.504;30.500;2023-04-25T07:48:00;6.27;;;3.10;;
35839;SDS011;35514;50.504;30.500;2023-04-25T07:50:28;7.93;;;2.70;;
35839;SDS011;35514;50.504;30.500;2023-04-25T07:52:56;7.72;;;3.40;;
35839;SDS011;35514;50.504;30.500;2023-04-25T07:55:27;7.20;;;2.63;;
35839;SDS011;35514;50.504;30.500;2023-04-25T07:57:57;6.78;;;3.13;;
35839;SDS011;35514;50.504;30.500;2023-04-25T08:00:31;5.90;;;3.77;;
35839;SDS011;35514;50.504;30.500;2023-04-25T08:03:01;11.00;;;3.00;;
35839;SDS011;35514;50.504;30.500;2023-04-25T08:05:33;4.70;;;3.08;;
35839;SDS011;35514;50.504;30.500;2023-04-25T08:08:03;5.07;;;2.30;;
35839;SDS011;35514;50.504;30.500;2023-04-25T08:10:57;7.85;;;2.20;;
35839;SDS011;35514;50.504;30.500;2023-04-25T08:13:54;5.47;;;2.95;;
35839;SDS011;35514;50.504;30.500;2023-04-25T08:16:27;5.97;;;2.90;;
35839;SDS011;35514;50.504;30.500;2023-04-25T08:18:55;6.55;;;2.78;;
35839;SDS011;35514;50.504;30.500;2023-04-25T08:21:25;4.60;;;2.75;;
35839;SDS011;35514;50.504;30.500;2023-04-25T08:24:20;7.05;;;2.80;;
35839;SDS011;35514;50.504;30.500;2023-04-25T08:26:51;5.10;;;2.70;;
35839;SDS011;35514;50.504;30.500;2023-04-25T08:29:19;6.68;;;2.80;;
35839;SDS011;35514;50.504;30.500;2023-04-25T08:31:48;8.07;;;2.65;;
35839;SDS011;35514;50.504;30.500;2023-04-25T08:34:15;7.50;;;2.38;;
35839;SDS011;35514;50.504;30.500;2023-04-25T08:36:43;3.85;;;2.22;;
35839;SDS011;35514;50.504;30.500;2023-04-25T08:39:11;5.30;;;2.20;;
35839;SDS011;35514;50.504;30.500;2023-04-25T08:42:06;7.72;;;2.40;;
35839;SDS011;35514;50.504;30.500;2023-04-25T08:44:36;4.75;;;2.15;;
35839;SDS011;35514;50.504;30.500;2023-04-25T08:47:05;2.80;;;2.08;;
35839;SDS011;35514;50.504;30.500;2023-04-25T08:49:33;6.05;;;2.63;;
35839;SDS011;35514;50.504;30.500;2023-04-25T08:52:26;2.47;;;1.63;;
35839;SDS011;35514;50.504;30.500;2023-04-25T08:54:55;2.38;;;1.80;;
35839;SDS011;35514;50.504;30.500;2023-04-25T08:57:22;6.18;;;2.25;;
35839;SDS011;35514;50.504;30.500;2023-04-25T08:59:51;3.45;;;1.90;;
35839;SDS011;35514;50.504;30.500;2023-04-25T09:02:20;4.20;;;2.28;;
35839;SDS011;35514;50.504;30.500;2023-04-25T09:04:51;7.20;;;2.63;;
35839;SDS011;35514;50.504;30.500;2023-04-25T09:07:21;5.07;;;2.15;;
35839;SDS011;35514;50.504;30.500;2023-04-25T09:09:48;5.82;;;2.15;;
35839;SDS011;35514;50.504;30.500;2023-04-25T09:12:17;10.18;;;2.88;;
35839;SDS011;35514;50.504;30.500;2023-04-25T09:15:09;6.00;;;2.45;;
35839;SDS011;35514;50.504;30.500;2023-04-25T09:17:46;8.82;;;3.10;;
35839;SDS011;35514;50.504;30.500;2023-04-25T09:20:22;15.25;;;2.35;;
35839;SDS011;35514;50.504;30.500;2023-04-25T09:23:00;11.90;;;3.15;;
35839;SDS011;35514;50.504;30.500;2023-04-25T09:25:28;4.70;;;3.00;;
35839;SDS011;35514;50.504;30.500;2023-04-25T09:28:03;5.15;;;2.53;;
35839;SDS011;35514;50.504;30.500;2023-04-25T09:30:32;6.38;;;2.90;;
35839;SDS011;35514;50.504;30.500;2023-04-25T09:33:10;4.72;;;2.53;;
35839;SDS011;35514;50.504;30.500;2023-04-25T09:36:06;3.40;;;2.30;;
35839;SDS011;35514;50.504;30.500;2023-04-25T09:38:40;11.38;;;4.68;;
35839;SDS011;35514;50.504;30.500;2023-04-25T09:41:08;6.93;;;3.08;;
35839;SDS011;35514;50.504;30.500;2023-04-25T09:44:00;9.43;;;2.97;;
35839;SDS011;35514;50.504;30.500;2023-04-25T09:46:32;3.00;;;2.15;;
35839;SDS011;35514;50.504;30.500;2023-04-25T09:49:09;4.47;;;2.22;;
35839;SDS011;35514;50.504;30.500;2023-04-25T09:52:01;3.42;;;2.08;;
35839;SDS011;35514;50.504;30.500;2023-04-25T09:54:53;8.80;;;2.25;;
35839;SDS011;35514;50.504;30.500;2023-04-25T09:57:21;4.40;;;2.08;;
35839;SDS011;35514;50.504;30.500;2023-04-25T09:59:49;5.65;;;2.35;;
35839;SDS011;35514;50.504;30.500;2023-04-25T10:02:18;3.20;;;2.20;;
35839;SDS011;35514;50.504;30.500;2023-04-25T10:05:12;5.88;;;2.60;;
35839;SDS011;35514;50.504;30.500;2023-04-25T10:07:40;4.32;;;2.50;;
35839;SDS011;35514;50.504;30.500;2023-04-25T10:10:08;5.05;;;2.67;;
35839;SDS011;35514;50.504;30.500;2023-04-25T10:12:36;4.88;;;2.72;;
35839;SDS011;35514;50.504;30.500;2023-04-25T10:15:06;4.60;;;2.30;;
35839;SDS011;35514;50.504;30.500;2023-04-25T10:17:36;7.72;;;2.10;;
35839;SDS011;35514;50.504;30.500;2023-04-25T10:20:04;4.13;;;2.40;;
35839;SDS011;35514;50.504;30.500;2023-04-25T10:23:06;5.28;;;2.30;;
35839;SDS011;35514;50.504;30.500;2023-04-25T10:25:35;4.43;;;1.92;;
35839;SDS011;35514;50.504;30.500;2023-04-25T10:28:03;3.33;;;2.30;;
35839;SDS011;35514;50.504;30.500;2023-04-25T10:30:31;4.68;;;2.30;;
35839;SDS011;35514;50.504;30.500;2023-04-25T10:33:03;4.10;;;2.25;;
35839;SDS011;35514;50.504;30.500;2023-04-25T10:35:43;5.13;;;2.10;;
35839;SDS011;35514;50.504;30.500;2023-04-25T10:38:24;3.40;;;2.20;;
35839;SDS011;35514;50.504;30.500;2023-04-25T10:41:02;6.45;;;1.63;;
35839;SDS011;35514;50.504;30.500;2023-04-25T10:43:33;3.15;;;1.90;;
35839;SDS011;35514;50.504;30.500;2023-04-25T10:46:01;4.95;;;2.00;;
35839;SDS011;35514;50.504;30.500;2023-04-25T10:48:33;6.88;;;2.10;;
35839;SDS011;35514;50.504;30.500;2023-04-25T10:51:07;4.95;;;2.10;;
35839;SDS011;35514;50.504;30.500;2023-04-25T10:53:42;5.68;;;2.47;;
35839;SDS011;35514;50.504;30.500;2023-04-25T10:56:36;6.00;;;2.22;;
35839;SDS011;35514;50.504;30.500;2023-04-25T10:59:08;3.57;;;2.00;;
35839;SDS011;35514;50.504;30.500;2023-04-25T11:01:37;6.53;;;2.00;;
35839;SDS011;35514;50.504;30.500;2023-04-25T11:04:05;4.13;;;1.90;;
35839;SDS011;35514;50.504;30.500;2023-04-25T11:06:43;11.73;;;2.15;;
35839;SDS011;35514;50.504;30.500;2023-04-25T11:09:23;5.30;;;2.00;;
35839;SDS011;35514;50.504;30.500;2023-04-25T11:11:53;6.95;;;1.92;;
35839;SDS011;35514;50.504;30.500;2023-04-25T11:14:21;6.40;;;2.72;;
35839;SDS011;35514;50.504;30.500;2023-04-25T11:16:52;4.25;;;2.08;;
35839;SDS011;35514;50.504;30.500;2023-04-25T11:22:38;2.97;;;1.92;;
35839;SDS011;35514;50.504;30.500;2023-04-25T11:25:10;6.03;;;2.17;;
35839;SDS011;35514;50.504;30.500;2023-04-25T11:27:38;5.18;;;2.60;;
35839;SDS011;35514;50.504;30.500;2023-04-25T11:30:12;3.90;;;2.03;;
35839;SDS011;35514;50.504;30.500;2023-04-25T11:32:41;10.02;;;1.88;;
35839;SDS011;35514;50.504;30.500;2023-04-25T11:35:33;3.67;;;1.75;;
35839;SDS011;35514;50.504;30.500;2023-04-25T11:38:02;5.15;;;1.90;;
35839;SDS011;35514;50.504;30.500;2023-04-25T11:40:58;3.00;;;1.83;;
35839;SDS011;35514;50.504;30.500;2023-04-25T11:43:29;4.28;;;2.42;;
35839;SDS011;35514;50.504;30.500;2023-04-25T11:45:57;2.95;;;1.83;;
35839;SDS011;35514;50.504;30.500;2023-04-25T11:48:25;3.58;;;1.88;;
35839;SDS011;35514;50.504;30.500;2023-04-25T11:50:53;9.05;;;3.33;;
35839;SDS011;35514;50.504;30.500;2023-04-25T11:55:55;4.35;;;1.80;;
35839;SDS011;35514;50.504;30.500;2023-04-25T11:58:23;2.80;;;1.73;;
35839;SDS011;35514;50.504;30.500;2023-04-25T12:00:51;2.70;;;1.92;;
35839;SDS011;35514;50.504;30.500;2023-04-25T12:03:18;4.25;;;1.92;;
35839;SDS011;35514;50.504;30.500;2023-04-25T12:05:46;7.43;;;2.22;;
35839;SDS011;35514;50.504;30.500;2023-04-25T12:08:15;2.58;;;1.80;;
35839;SDS011;35514;50.504;30.500;2023-04-25T12:10:44;5.47;;;1.80;;
35839;SDS011;35514;50.504;30.500;2023-04-25T12:13:23;4.57;;;1.90;;
35839;SDS011;35514;50.504;30.500;2023-04-25T12:15:51;6.15;;;1.90;;
35839;SDS011;35514;50.504;30.500;2023-04-25T12:18:19;13.95;;;2.25;;
35839;SDS011;35514;50.504;30.500;2023-04-25T12:20:47;8.02;;;2.30;;
35839;SDS011;35514;50.504;30.500;2023-04-25T12:23:15;3.63;;;2.40;;
35839;SDS011;35514;50.504;30.500;2023-04-25T12:25:43;3.28;;;2.35;;
35839;SDS011;35514;50.504;30.500;2023-04-25T12:28:13;6.10;;;2.30;;
35839;SDS011;35514;50.504;30.500;2023-04-25T12:31:06;4.47;;;2.33;;
35839;SDS011;35514;50.504;30.500;2023-04-25T12:33:35;3.85;;;2.10;;
35839;SDS011;35514;50.504;30.500;2023-04-25T12:36:03;4.85;;;1.98;;
35839;SDS011;35514;50.504;30.500;2023-04-25T12:38:59;4.35;;;2.40;;
35839;SDS011;35514;50.504;30.500;2023-04-25T12:41:30;6.15;;;2.30;;
35839;SDS011;35514;50.504;30.500;2023-04-25T12:43:58;9.38;;;3.25;;
35839;SDS011;35514;50.504;30.500;2023-04-25T12:46:27;3.92;;;2.22;;
35839;SDS011;35514;50.504;30.500;2023-04-25T12:48:54;3.83;;;1.83;;
35839;SDS011;35514;50.504;30.500;2023-04-25T12:51:37;5.38;;;1.90;;
35839;SDS011;35514;50.504;30.500;2023-04-25T12:54:05;6.97;;;2.05;;
35839;SDS011;35514;50.504;30.500;2023-04-25T12:56:33;4.45;;;2.20;;
35839;SDS011;35514;50.504;30.500;2023-04-25T12:59:01;7.38;;;2.13;;
35839;SDS011;35514;50.504;30.500;2023-04-25T13:01:30;6.47;;;2.65;;
35839;SDS011;35514;50.504;30.500;2023-04-25T13:04:02;4.80;;;2.08;;
35839;SDS011;35514;50.504;30.500;2023-04-25T13:06:30;4.57;;;2.40;;
35839;SDS011;35514;50.504;30.500;2023-04-25T13:08:58;8.93;;;2.10;;
35839;SDS011;35514;50.504;30.500;2023-04-25T13:11:25;6.65;;;2.20;;
35839;SDS011;35514;50.504;30.500;2023-04-25T13:13:53;8.30;;;2.28;;
35839;SDS011;35514;50.504;30.500;2023-04-25T13:16:21;10.98;;;2.33;;
35839;SDS011;35514;50.504;30.500;2023-04-25T13:18:50;6.00;;;2.20;;
35839;SDS011;35514;50.504;30.500;2023-04-25T13:21:41;3.40;;;2.10;;
35839;SDS011;35514;50.504;30.500;2023-04-25T13:24:33;4.68;;;2.25;;
35839;SDS011;35514;50.504;30.500;2023-04-25T13:27:01;3.70;;;2.08;;
35839;SDS011;35514;50.504;30.500;2023-04-25T13:29:29;6.40;;;2.20;;
35839;SDS011;35514;50.504;30.500;2023-04-25T13:32:21;3.17;;;1.70;;
35839;SDS011;35514;50.504;30.500;2023-04-25T13:34:50;9.02;;;2.05;;
35839;SDS011;35514;50.504;30.500;2023-04-25T13:37:18;3.08;;;1.65;;
35839;SDS011;35514;50.504;30.500;2023-04-25T13:39:45;2.38;;;1.92;;
35839;SDS011;35514;50.504;30.500;2023-04-25T13:42:37;6.82;;;1.90;;
35839;SDS011;35514;50.504;30.500;2023-04-25T13:45:06;7.03;;;1.80;;
35839;SDS011;35514;50.504;30.500;2023-04-25T13:47:34;3.45;;;1.90;;
35839;SDS011;35514;50.504;30.500;2023-04-25T13:50:03;3.60;;;1.80;;
35839;SDS011;35514;50.504;30.500;2023-04-25T13:52:31;4.03;;;1.95;;
35839;SDS011;35514;50.504;30.500;2023-04-25T13:54:59;5.53;;;1.83;;
35839;SDS011;35514;50.504;30.500;2023-04-25T13:57:30;4.72;;;1.95;;
35839;SDS011;35514;50.504;30.500;2023-04-25T14:00:21;13.55;;;2.08;;
35839;SDS011;35514;50.504;30.500;2023-04-25T14:03:13;6.43;;;2.03;;
35839;SDS011;35514;50.504;30.500;2023-04-25T14:05:42;5.93;;;2.15;;
35839;SDS011;35514;50.504;30.500;2023-04-25T14:08:10;9.48;;;2.35;;
35839;SDS011;35514;50.504;30.500;2023-04-25T14:10:37;12.65;;;2.17;;
35839;SDS011;35514;50.504;30.500;2023-04-25T14:13:05;5.80;;;2.10;;
35839;SDS011;35514;50.504;30.500;2023-04-25T14:15:36;4.63;;;1.98;;
35839;SDS011;35514;50.504;30.500;2023-04-25T14:18:04;4.18;;;2.33;;
35839;SDS011;35514;50.504;30.500;2023-04-25T14:20:32;6.15;;;1.88;;
35839;SDS011;35514;50.504;30.500;2023-04-25T14:23:01;6.45;;;2.00;;
35839;SDS011;35514;50.504;30.500;2023-04-25T14:25:29;7.75;;;2.15;;
35839;SDS011;35514;50.504;30.500;2023-04-25T14:27:57;5.68;;;1.92;;
35839;SDS011;35514;50.504;30.500;2023-04-25T14:30:24;6.18;;;1.90;;
35839;SDS011;35514;50.504;30.500;2023-04-25T14:32:54;5.18;;;2.40;;
35839;SDS011;35514;50.504;30.500;2023-04-25T14:35:22;5.78;;;2.05;;
35839;SDS011;35514;50.504;30.500;2023-04-25T14:37:49;5.45;;;2.13;;
35839;SDS011;35514;50.504;30.500;2023-04-25T14:40:18;2.85;;;1.90;;
35839;SDS011;35514;50.504;30.500;2023-04-25T14:42:49;7.80;;;2.33;;
35839;SDS011;35514;50.504;30.500;2023-04-25T14:45:19;6.22;;;1.80;;
35839;SDS011;35514;50.504;30.500;2023-04-25T14:47:49;8.40;;;1.52;;
35839;SDS011;35514;50.504;30.500;2023-04-25T14:50:18;6.43;;;3.55;;
35839;SDS011;35514;50.504;30.500;2023-04-25T14:52:49;5.95;;;2.70;;
35839;SDS011;35514;50.504;30.500;2023-04-25T14:55:16;3.45;;;2.08;;
35839;SDS011;35514;50.504;30.500;2023-04-25T14:57:46;7.80;;;3.17;;
35839;SDS011;35514;50.504;30.500;2023-04-25T15:00:14;4.85;;;2.28;;
35839;SDS011;35514;50.504;30.500;2023-04-25T15:02:42;4.60;;;2.00;;
35839;SDS011;35514;50.504;30.500;2023-04-25T15:05:10;2.75;;;1.98;;
35839;SDS011;35514;50.504;30.500;2023-04-25T15:07:38;5.20;;;2.45;;
35839;SDS011;35514;50.504;30.500;2023-04-25T15:10:06;2.33;;;1.85;;